Latest Weather Observations for Ayr

IDQ60801

Issued at 5:35 pm EST Friday 22 August 2014 (issued every 30 minutes, with the page automatically refreshed every 10 minutes)

About weather observations | Map of weather stations | Latest weather observations for QLD | Other Formats
Station Details ID: 033002 Name: AYR DPI RESEARCH STN Lat: -19.62 Lon: 147.38 Height: 17.0 m
Data from the previous 72 hours. | See also: Recent months at Ayr
Date/Time
EST
Temp
°C
App
Temp
°C
Dew
Point
Rel
Hum
%
Delta-T
°C
Wind Press
QNH
hPa
Press
MSL
hPa
Rain
since 9 am
mm
Dir
 
Spd
km/h
Gust
km/h
Spd
kts
Gust
kts
22/05:30pm 21.4 20.8 14.6 65 4.0 ENE 11 20 6 11 - - 0.0
22/05:00pm 21.9 20.4 14.3 62 4.4 ENE 15 24 8 13 - - 0.0
22/04:30pm 22.5 21.0 14.1 59 4.9 NE 15 24 8 13 - - 0.0
22/04:00pm 23.8 21.9 13.1 51 6.2 ENE 15 22 8 12 - - 0.0
22/03:30pm 24.1 22.0 12.4 48 6.7 ENE 15 24 8 13 - - 0.0
22/03:00pm 24.4 22.2 12.0 46 7.1 ENE 15 24 8 13 - - 0.0
22/02:30pm 23.9 21.3 11.9 47 6.8 ENE 17 26 9 14 - - 0.0
22/02:00pm 23.7 20.3 11.1 45 7.0 ENE 20 28 11 15 - - 0.0
22/01:30pm 24.0 21.1 12.3 48 6.7 ENE 19 26 10 14 - - 0.0
22/01:00pm 23.9 21.8 13.7 53 6.0 ENE 17 30 9 16 - - 0.0
22/12:30pm 24.3 22.6 13.5 51 6.3 E 15 22 8 12 - - 0.0
22/12:00pm 23.8 22.8 14.5 56 5.5 ESE 13 24 7 13 - - 0.0
22/11:30am 23.0 21.3 13.5 55 5.5 E 15 24 8 13 - - 0.0
22/11:00am 22.7 20.6 13.5 56 5.3 ESE 17 30 9 16 - - 0.0
22/10:30am 22.4 20.3 13.5 57 5.1 ESE 17 24 9 13 - - 0.0
22/10:00am 21.9 19.9 14.0 61 4.6 ESE 17 28 9 15 - - 0.0
22/09:30am 21.5 20.2 14.9 66 3.9 SE 15 24 8 13 - - 0.0
22/09:00am 20.3 18.6 14.7 70 3.3 SE 17 22 9 12 - - 0.0
22/08:30am 18.9 18.1 15.0 78 2.3 SSE 13 19 7 10 - - 0.0
22/08:00am 17.2 16.5 14.3 83 1.7 SE 11 17 6 9 - - 0.0
22/07:30am 15.9 15.5 14.1 89 1.0 SSE 9 13 5 7 - - 0.0
22/07:00am 14.5 14.1 12.9 90 0.9 SSE 7 9 4 5 - - 0.0
22/06:30am 13.7 13.2 11.9 89 1.0 S 6 7 3 4 - - 0.0
22/06:00am 14.0 13.5 12.2 89 1.0 S 6 7 3 4 - - 0.0
22/05:30am 14.2 13.6 12.4 89 1.0 SSE 7 9 4 5 - - 0.0
22/05:00am 14.5 14.0 12.7 89 1.0 SSE 7 9 4 5 - - 0.0
22/04:30am 14.6 14.1 12.8 89 1.0 SSE 7 11 4 6 - - 0.0
22/04:00am 14.7 14.2 12.6 87 1.1 SSE 7 9 4 5 - - 0.0
22/03:30am 15.1 14.7 13.0 87 1.2 SSE 7 11 4 6 - - 0.0
22/03:00am 15.6 15.3 13.4 87 1.2 SSE 7 11 4 6 - - 0.0
22/02:30am 15.7 14.8 13.7 88 1.1 SE 11 15 6 8 - - 0.0
22/02:00am 15.3 14.6 13.3 88 1.1 ESE 9 13 5 7 - - 0.0
22/01:30am 15.3 14.9 13.1 87 1.2 SSE 7 9 4 5 - - 0.0
22/01:00am 15.7 15.5 13.7 88 1.1 S 7 9 4 5 - - 0.0
22/12:30am 16.2 16.2 14.2 88 1.1 S 7 9 4 5 - - 0.0
22/12:00am 16.3 17.3 14.3 88 1.1 S 2 7 1 4 - - 0.0
 
Date/Time
EST
Temp
°C
App
Temp
°C
Dew
Point
Rel
Hum
%
Delta-T
°C
Wind Press
QNH
hPa
Press
MSL
hPa
Rain
since 9 am
mm
Dir
 
Spd
km/h
Gust
km/h
Spd
kts
Gust
kts
21/11:30pm 16.7 17.8 14.5 87 1.3 S 2 7 1 4 - - 0.0
21/11:00pm 16.8 18.2 14.4 86 1.4 CALM 0 0 0 0 - - 0.0
21/10:30pm 17.1 18.7 14.9 87 1.3 CALM 0 0 0 0 - - 0.0
21/10:00pm 16.9 18.5 14.9 88 1.2 CALM 0 0 0 0 - - 0.0
21/09:30pm 16.8 17.8 14.3 85 1.4 NE 2 7 1 4 - - 0.0
21/09:00pm 17.1 16.9 14.7 86 1.4 ENE 9 13 5 7 - - 0.0
21/08:30pm 16.9 17.0 14.0 83 1.6 NE 6 7 3 4 - - 0.0
21/08:00pm 17.4 17.4 14.3 82 1.8 ENE 7 11 4 6 - - 0.0
21/07:30pm 17.8 18.0 14.1 79 2.1 NE 6 9 3 5 - - 0.0
21/07:00pm 18.6 18.7 14.5 77 2.4 NE 7 9 4 5 - - 0.0
21/06:30pm 19.4 18.8 14.6 74 2.8 ENE 11 13 6 7 - - 0.0
21/06:00pm 20.1 19.5 14.5 70 3.3 ENE 11 17 6 9 - - 0.0
21/05:30pm 21.0 19.6 14.4 66 3.9 NE 15 20 8 11 - - 0.0
21/05:00pm 21.3 20.1 14.0 63 4.2 ENE 13 20 7 11 - - 0.0
21/04:30pm 22.4 20.9 14.3 60 4.8 ENE 15 20 8 11 - - 0.0
21/04:00pm 22.5 20.9 13.8 58 5.1 ENE 15 22 8 12 - - 0.0
21/03:30pm 22.8 20.6 13.3 55 5.5 NE 17 24 9 13 - - 0.0
21/03:00pm 23.0 20.8 13.2 54 5.7 NE 17 28 9 15 - - 0.0
21/02:30pm 23.0 20.7 12.9 53 5.8 ENE 17 26 9 14 - - 0.0
21/02:00pm 23.7 21.4 13.0 51 6.2 NE 17 24 9 13 - - 0.0
21/01:30pm 23.5 20.9 11.9 48 6.6 NE 17 24 9 13 - - 0.0
21/01:00pm 24.1 22.5 13.9 53 6.0 E 15 20 8 11 - - 0.0
21/12:30pm 23.5 21.1 10.2 43 7.3 ENE 13 20 7 11 - - 0.0
21/12:00pm 23.3 20.9 11.4 47 6.7 E 15 20 8 11 - - 0.0
21/11:30am 23.5 22.2 12.5 50 6.3 NE 11 24 6 13 - - 0.0
21/11:00am 23.2 21.4 10.9 46 6.8 E 11 19 6 10 - - 0.0
21/10:30am 22.9 22.0 12.5 52 5.9 ESE 9 17 5 9 - - 0.0
21/10:00am 22.0 20.4 12.8 56 5.2 ESE 13 20 7 11 - - 0.0
21/09:30am 21.3 20.3 12.4 57 5.0 SE 9 17 5 9 - - 0.0
21/09:00am 20.3 18.6 12.5 61 4.4 SE 13 19 7 10 - - 0.0
21/08:30am 18.3 17.9 13.0 71 3.0 SE 7 9 4 5 - - 0.0
21/08:00am 16.4 15.9 12.6 78 2.1 SSE 7 9 4 5 - - 0.0
21/07:30am 14.8 13.9 11.4 80 1.8 SSE 7 9 4 5 - - 0.0
21/07:00am 13.3 12.1 10.3 82 1.6 SSE 7 11 4 6 - - 0.0
21/06:30am 13.2 12.0 10.2 82 1.6 SSE 7 11 4 6 - - 0.0
21/06:00am 13.2 12.0 10.2 82 1.6 SSE 7 11 4 6 - - 0.0
21/05:30am 13.0 11.3 10.0 82 1.5 SSE 9 11 5 6 - - 0.0
21/05:00am 13.0 11.7 9.8 81 1.6 SSE 7 9 4 5 - - 0.0
21/04:30am 13.5 12.0 10.5 82 1.6 SSE 9 11 5 6 - - 0.0
21/04:00am 13.5 12.4 10.7 83 1.5 S 7 9 4 5 - - 0.0
21/03:30am 13.4 12.3 10.6 83 1.5 S 7 7 4 4 - - 0.0
21/03:00am 13.8 12.8 11.0 83 1.5 SSE 7 9 4 5 - - 0.0
21/02:30am 14.1 13.1 11.1 82 1.6 SSE 7 9 4 5 - - 0.0
21/02:00am 14.0 13.1 11.2 83 1.5 SSE 7 9 4 5 - - 0.0
21/01:30am 13.9 13.0 11.2 84 1.4 SSE 7 11 4 6 - - 0.0
21/01:00am 13.5 12.6 11.2 86 1.2 SSE 7 11 4 6 - - 0.0
21/12:30am 13.2 12.2 11.1 87 1.1 S 7 9 4 5 - - 0.0
21/12:00am 13.5 13.1 11.2 86 1.2 S 4 7 2 4 - - 0.0
 
Date/Time
EST
Temp
°C
App
Temp
°C
Dew
Point
Rel
Hum
%
Delta-T
°C
Wind Press
QNH
hPa
Press
MSL
hPa
Rain
since 9 am
mm
Dir
 
Spd
km/h
Gust
km/h
Spd
kts
Gust
kts
20/11:30pm 13.5 13.1 11.2 86 1.2 ENE 4 7 2 4 - - 0.0
20/11:00pm 13.7 14.1 11.2 85 1.3 CALM 0 0 0 0 - - 0.0
20/10:30pm 13.6 13.9 10.9 84 1.4 CALM 0 0 0 0 - - 0.0
20/10:00pm 14.3 14.8 11.5 83 1.5 CALM 0 6 0 3 - - 0.0
20/09:30pm 14.3 13.8 10.9 80 1.8 ENE 4 7 2 4 - - 0.0
20/09:00pm 15.1 14.5 11.7 80 1.8 ENE 6 7 3 4 - - 0.0
20/08:30pm 15.1 14.1 10.9 76 2.2 ENE 7 9 4 5 - - 0.0
20/08:00pm 15.5 14.6 11.3 76 2.3 ENE 7 11 4 6 - - 0.0
20/07:30pm 16.0 15.1 11.4 74 2.5 ENE 7 9 4 5 - - 0.0
20/07:00pm 16.9 16.1 11.2 69 3.1 NE 6 9 3 5 - - 0.0
20/06:30pm 17.7 16.6 10.8 64 3.7 NNE 7 11 4 6 - - 0.0
20/06:00pm 19.2 17.7 10.7 58 4.6 NE 9 17 5 9 - - 0.0
20/05:30pm 20.6 17.9 10.4 52 5.5 NE 15 20 8 11 - - 0.0
20/05:00pm 21.4 18.1 9.6 47 6.3 NE 17 26 9 14 - - 0.0
20/04:30pm 22.1 18.9 9.9 46 6.6 ENE 17 24 9 13 - - 0.0
20/04:00pm 23.0 19.7 9.4 42 7.3 ENE 17 26 9 14 - - 0.0
20/03:30pm 23.4 19.8 8.3 38 8.0 NE 17 26 9 14 - - 0.0
20/03:00pm 23.5 19.6 5.4 31 9.1 ENE 15 24 8 13 - - 0.0
20/02:30pm 24.2 21.6 7.8 35 8.7 ENE 11 19 6 10 - - 0.0
20/02:00pm 24.2 21.6 7.8 35 8.7 ENE 11 20 6 11 - - 0.0
20/01:30pm 23.9 21.3 6.2 32 9.1 E 9 19 5 10 - - 0.0
20/01:00pm 23.7 19.9 6.0 32 9.0 E 15 22 8 12 - - 0.0
20/12:30pm 24.0 21.0 7.6 35 8.6 ENE 13 20 7 11 - - 0.0
20/12:00pm 23.8 20.9 8.2 37 8.3 E 13 20 7 11 - - 0.0
20/11:30am 23.1 20.6 8.4 39 7.8 E 11 20 6 11 - - 0.0
20/11:00am 22.8 20.7 9.9 44 7.0 NE 11 19 6 10 - - 0.0
20/10:30am 22.1 20.6 10.6 48 6.3 SE 9 15 5 8 - - 0.0
20/10:00am 21.8 21.1 13.2 58 4.9 SE 9 15 5 8 - - 0.0
20/09:30am 20.4 19.4 12.4 60 4.5 ESE 9 13 5 7 - - 0.0
20/09:00am 18.6 17.8 12.8 69 3.3 SSE 9 13 5 7 - - 0.0
20/08:30am 16.6 16.1 12.6 77 2.2 S 7 9 4 5 - - 0.0
20/08:00am 14.7 14.1 12.2 85 1.4 S 7 9 4 5 - - 0.0
20/07:30am 12.5 12.4 10.9 90 0.8 S 2 7 1 4 - - 0.0
20/07:00am 10.3 9.3 8.7 90 0.8 S 4 6 2 3 - - 0.0
20/06:30am 9.8 8.2 8.1 89 0.8 S 6 6 3 3 - - 0.0
20/06:00am 10.1 8.4 8.2 88 0.9 S 7 7 4 4 - - 0.0
20/05:30am 10.4 8.8 8.7 89 0.8 S 7 9 4 5 - - 0.0
20/05:00am 10.3 8.7 8.6 89 0.8 S 7 9 4 5 - - 0.0
20/04:30am 10.0 8.3 8.3 89 0.8 S 7 9 4 5 - - 0.0
20/04:00am 10.0 9.6 8.1 88 0.9 CALM 0 0 0 0 - - 0.0
20/03:30am 10.3 8.7 8.2 87 1.0 S 6 7 3 4 - - 0.0
20/03:00am 10.7 9.2 8.6 87 1.0 S 6 7 3 4 - - 0.0
20/02:30am 10.8 9.2 8.7 87 1.0 S 7 9 4 5 - - 0.0
20/02:00am 10.7 9.2 8.5 86 1.1 S 6 7 3 4 - - 0.0
20/01:30am 11.4 9.9 9.3 87 1.1 S 7 9 4 5 - - 0.0
20/01:00am 11.6 10.1 9.3 86 1.2 S 7 9 4 5 - - 0.0
20/12:30am 11.4 10.0 8.8 84 1.3 SE 6 9 3 5 - - 0.0
20/12:00am 11.8 10.4 9.7 87 1.1 SSE 7 9 4 5 - - 0.0
 
Date/Time
EST
Temp
°C
App
Temp
°C
Dew
Point
Rel
Hum
%
Delta-T
°C
Wind Press
QNH
hPa
Press
MSL
hPa
Rain
since 9 am
mm
Dir
 
Spd
km/h
Gust
km/h
Spd
kts
Gust
kts
19/11:30pm 12.0 10.9 9.9 87 1.1 SE 6 9 3 5 - - 0.0
19/11:00pm 12.2 12.2 9.9 86 1.2 CALM 0 0 0 0 - - 0.0
19/10:30pm 12.7 12.5 10.6 87 1.1 SE 2 6 1 3 - - 0.0
19/10:00pm 12.1 10.9 9.7 85 1.2 N 6 7 3 4 - - 0.0
19/09:30pm 12.6 12.3 10.0 84 1.3 N 2 6 1 3 - - 0.0
19/09:00pm 12.7 12.7 9.7 82 1.5 CALM 0 0 0 0 - - 0.0
19/08:30pm 12.8 12.8 9.8 82 1.5 CALM 0 0 0 0 - - 0.0
19/08:00pm 13.6 13.6 9.8 78 2.0 CALM 0 0 0 0 - - 0.0
19/07:30pm 14.3 14.2 9.3 72 2.6 CALM 0 0 0 0 - - 0.0
19/07:00pm 16.2 15.5 10.1 67 3.2 N 4 7 2 4 - - 0.0
19/06:30pm 17.0 16.3 8.4 57 4.4 N 2 7 1 4 - - 0.0
19/06:00pm 19.3 17.6 8.3 49 5.7 N 7 9 4 5 - - 0.0

Other Formats:

Comma delimited format used in spreadsheet applications
http://www.bom.gov.au/fwo/IDQ60801/IDQ60801.95295.axf

JavaScript Object Notation format (JSON) in row-major order
http://www.bom.gov.au/fwo/IDQ60801/IDQ60801.95295.json